Wills Point, TX

10:06 AM CDT on August 01, 2015 (GMT -0500)
MesoWest | | Change Station
CLOSE
Current Station
Personal Weather Station
Location: Edgewood, TX
Elevation: 455 ft
Nearby Weather Stations

Elev 455 ft 32.70 °N, 95.93 °W | Updated 1 hour ago

Mostly Cloudy
Mostly Cloudy
80.0 °F
Feels Like 80.0 °F
N
0.0
Wind Variable Wind from North
Gusts 0.0 mph

Today
High -- | Low -- °F
--% Chance of Precip.
Yesterday
High -- | Low -- °F
Precip. -- in
6:37 AM 8:22 PM
Full, 98% visible
Pressure 30.06 in
Visibility 10.0 miles
Clouds Mostly Cloudy 12000 ft
Dew Point Not available.
Humidity Not available.
Rainfall in
Snow Depth Not available.
UV 3 out of 12
Pollen 4.50 out of 12
Air Quality Not available.
Flu Activity Not available.
METAR KTRL 011453Z AUTO 12007KT 10SM BKN120 29/18 A3008 RMK AO2 SLP177 6//// T02940178 53015 PNO $

More Conditions Fewer Conditions

Pressure 30.06 in
Visibility 10.0 miles
Clouds Mostly Cloudy 12000 ft
Dew Point Not available.
Humidity Not available.
Rainfall in
Snow Depth Not available.
UV 3 out of 12
Pollen 4.50 out of 12
Air Quality Not available.
Flu Activity Not available.
METAR KTRL 011453Z AUTO 12007KT 10SM BKN120 29/18 A3008 RMK AO2 SLP177 6//// T02940178 53015 PNO $

More Conditions Fewer Conditions

Nowcast | as of 6:52 am CDT on August 1, 2015

Isolated showers and thunderstorms will move southeast into areas west of a Jacksboro to Comanche line through 10 am CDT. Areas that do seen rain could see between 1/10 and 1/4 of an inch. Occasional lightning strikes will also pose a hazard for those heading outside across this area later this morning. Otherwise...partly cloudy and warm conditions will persist elsewhere with temperatures rising into the 80s through late morning. Winds will be light from the northeast and east around 5 mph.

×

10-Day Weather Forecast

×

Almanac

Astronomy

Aug. 01, 2015 Rise Set
Actual Time
Civil Twilight
Nautical Twilight
Astronomical Twilight
Moon
Length of Visible Light
Length of Day
Tomorrow will be .
, % of the Moon is Illuminated

Today's Extremes

State Highs State Lows

Community

WunderPhotos

Upload Photos

1,842,959 photos uploaded!

WunderBlogs® & News

Nearby

Air Quality

  Air Quality AQ Index Pollutant
Not available.

Snow Depth

Station Depth Elevation

Earthquake Activity

City Distance Mag. Time & Date
Minimum magnitude displayed is 2.5.

Coastal Water Temperatures

Place Temperature

Stations

Nearby Weather Stations

Station Location Temp. Windchill Dew Point Humidity Wind Precip. Elev Updated Type